Villa Dos Pinos, Puerto Rico
Current Conditions -  °F | °C
As of 9:56 PM on Friday 28 Nov 2014 (Local Time) from TJSJ Reporting Station
Clear Clear  
Wind Chill: 77°   Ceiling: Unl
Heat Index: 79°   Visibility: 10mi
Dew Point: 70°   Wind: 0mph
Humidity: 79%   Direction: NA
Pressure: 29.98"   Gusts: NA
Location:  18.4125°N, 66.0374°W
Report Text: TJSJ 290156Z 00000KT 10SM CLR 25/21 A2998 RMK AO2 SLP152 T02500211
Loading
Personal Weather Stations






























Interactive Weather Map New forecast layout! Learn more

10-Day Weather Forecast

Advertisements
Track Severe Weather on mobile